This is the latest recevied weather packets stored in our database for station/object XE2KK-10. If no packets are shown the sender has not sent any weather packets the latest 10 day(s).
| Time | Temp. | Humidity | Pressure | Rain* | Wind** | Luminosity | Snow |
|---|---|---|---|---|---|---|---|
| 1777822753 | 19.44° C | 57% | 1022.9 hPa | 0 mm | - | 646 W/m² | - |
| 1777821553 | 20° C | 54% | 1023.1 hPa | 0 mm | - | 437 W/m² | - |
| 1777819753 | 19.44° C | 56% | 1023 hPa | 0 mm | - | 441 W/m² | - |
| 1777819453 | 18.89° C | 57% | 1023 hPa | 0 mm | - | 432 W/m² | - |
| 1777816753 | 17.22° C | 61% | 1022.5 hPa | 0 mm | - | 214 W/m² | - |
| 1777813153 | 16.11° C | 67% | 1022 hPa | 0 mm | - | 62 W/m² | - |
| 1777811353 | 14.44° C | 73% | 1021.6 hPa | 0 mm | - | 17 W/m² | - |
| 1777810752 | 15° C | 72% | 1021.3 hPa | 0 mm | - | 10 W/m² | - |
| 1777808053 | 15° C | 71% | 1021.4 hPa | 0 mm | - | 0 W/m² | - |
| 1777802953 | 15.56° C | 66% | 1020.6 hPa | 0 mm | - | 0 W/m² | - |
| 1777802653 | 15.56° C | 67% | 1020.9 hPa | 0 mm | - | 0 W/m² | - |
| 1777802353 | 15.56° C | 67% | 1020.6 hPa | 0 mm | - | 0 W/m² | - |
| 1777801153 | 16.11° C | 67% | 1020.7 hPa | 0 mm | - | 0 W/m² | - |
| 1777800852 | 15.56° C | 67% | 1020.8 hPa | 0 mm | - | 0 W/m² | - |
| 1777800552 | 15.56° C | 68% | 1020.9 hPa | 0 mm | - | 0 W/m² | - |
| 1777800252 | 15.56° C | 69% | 1020.9 hPa | 0 mm | - | 0 W/m² | - |
| 1777799952 | 16.11° C | 68% | 1020.9 hPa | 0 mm | - | 0 W/m² | - |
| 1777799652 | 16.11° C | 68% | 1020.9 hPa | 0 mm | - | 0 W/m² | - |
| 1777799353 | 16.11° C | 68% | 1020.9 hPa | 0 mm | - | 0 W/m² | - |
| 1777799052 | 16.11° C | 68% | 1021 hPa | 0 mm | - | 0 W/m² | - |
| 1777798752 | 16.11° C | 68% | 1021.1 hPa | 0 mm | - | 0 W/m² | - |
| 1777798152 | 16.11° C | 68% | 1021 hPa | 0 mm | - | 0 W/m² | - |
| 1777797553 | 16.11° C | 67% | 1021.2 hPa | 0 mm | - | 0 W/m² | - |
| 1777797253 | 16.11° C | 67% | 1021.4 hPa | 0 mm | - | 0 W/m² | - |
| 1777796952 | 16.11° C | 68% | 1021.5 hPa | 0 mm | - | 0 W/m² | - |
* Rain latest hour (hover to see other rain measurements)
** Current wind speed in m/s (hover to see current wind gust speed)